Historique des stations

Station météo de Salbris

Altitude de la station : 113 m







Données météorologiques pour le 06/03/2021
Date
Heure
Températures Humidité Point de rosée Vitesse
du vent
Direction Rafales Windchill Pression Pluviométrie
Cumul
Date
Heure
Températures Humidité Point de rosée Vitesse
du vent
Direction Rafales Windchill Pression Pluviométrie
Cumul
06/03/2021 12:149.0 °C60 %1.7 °C6 km/hN23 km/h7.8 1029 hPa-
06/03/2021 11:598.8 °C61 %1.7 °C6 km/hN21 km/h7.8 1029 hPa-
06/03/2021 11:448.1 °C61 %1.1 °C5 km/hN21 km/h7.8 1029 hPa-
06/03/2021 11:297.7 °C64 %1.1 °C14 km/hN21 km/h5.0 1029 hPa-
06/03/2021 11:147.2 °C64 %0.6 °C6 km/hN21 km/h6.1 1029 hPa-
06/03/2021 10:596.9 °C67 %1.1 °C8 km/hN21 km/h5.0 1029 hPa-
06/03/2021 10:445.9 °C68 %0.6 °C8 km/hN21 km/h4.4 1029 hPa-
06/03/2021 10:305.6 °C68 %0.0 °C10 km/hN21 km/h3.3 1029 hPa-
06/03/2021 10:144.9 °C71 %0.0 °C10 km/hN21 km/h2.8 1029 hPa-
06/03/2021 09:594.1 °C74 %0.0 °C5 km/hN21 km/h2.8 1029 hPa-
06/03/2021 09:443.3 °C76 %-0.6 °C6 km/hN21 km/h1.7 1029 hPa-
06/03/2021 09:292.4 °C78 %-1.1 °C5 km/hN21 km/h1.1 1029 hPa-
06/03/2021 09:141.8 °C79 %-1.7 °C10 km/hN21 km/h-1.1 1029 hPa-
06/03/2021 09:001.1 °C82 %-1.7 °C5 km/hN18 km/h0.0 1029 hPa-
06/03/2021 08:450.3 °C84 %-2.2 °C3 km/hN18 km/h-0.6 1029 hPa-
06/03/2021 08:30-0.3 °C85 %-2.8 °C10 km/hN18 km/h-3.3 1029 hPa-
06/03/2021 08:15-0.8 °C86 %-2.8 °C5 km/hN18 km/h-1.7 1029 hPa-
06/03/2021 07:59-1.2 °C86 %-3.3 °C2 km/hN18 km/h-1.7 1029 hPa-
06/03/2021 07:44-1.2 °C86 %-3.3 °C2 km/hN18 km/h-1.7 1029 hPa-
06/03/2021 07:29-1.1 °C86 %-3.3 °C2 km/hN18 km/h-1.7 1029 hPa-
06/03/2021 07:14-1.1 °C86 %-3.3 °C2 km/hN18 km/h-1.7 1029 hPa-
06/03/2021 06:59-1.0 °C85 %-3.3 °C5 km/hN18 km/h-2.8 1028 hPa-
06/03/2021 06:44-0.8 °C85 %-2.8 °C5 km/hN18 km/h-1.7 1028 hPa-
06/03/2021 06:29-0.7 °C85 %-2.8 °C5 km/hN18 km/h-1.7 1028 hPa-
06/03/2021 06:14-0.6 °C84 %-2.8 °C-N18 km/h-0.6 1028 hPa-
06/03/2021 05:59-0.4 °C84 %-2.8 °C5 km/hN18 km/h-1.7 1028 hPa-
06/03/2021 05:44-0.2 °C83 %-2.8 °C2 km/hN18 km/h-0.6 1028 hPa-
06/03/2021 05:29-0.1 °C83 %-2.8 °C2 km/hN18 km/h-0.6 1028 hPa-
06/03/2021 05:14-0.1 °C84 %-2.2 °C3 km/hN18 km/h-1.1 1028 hPa-
06/03/2021 04:59-0.1 °C83 %-2.8 °C2 km/hN18 km/h-0.6 1028 hPa-
06/03/2021 04:440.0 °C83 %-2.8 °C3 km/hN14 km/h-1.1 1028 hPa-
06/03/2021 04:290.2 °C84 %-2.2 °C5 km/hN14 km/h-1.1 1028 hPa-
06/03/2021 04:140.2 °C84 %-2.2 °C3 km/hN13 km/h-1.1 1028 hPa-
06/03/2021 03:590.2 °C84 %-2.2 °C3 km/hN13 km/h-1.1 1028 hPa-
06/03/2021 03:440.3 °C83 %-2.2 °C3 km/hN13 km/h-0.6 1028 hPa-
06/03/2021 03:290.3 °C84 %-2.2 °C6 km/hN10 km/h-1.1 1028 hPa-
06/03/2021 03:140.2 °C84 %-2.2 °C8 km/hN10 km/h-2.8 1028 hPa-
06/03/2021 02:590.1 °C84 %-2.2 °C3 km/hN10 km/h-1.1 1028 hPa-
06/03/2021 02:44-0.1 °C85 %-2.2 °C3 km/hN10 km/h-1.1 1028 hPa-
06/03/2021 02:29-0.4 °C85 %-2.8 °C3 km/hN10 km/h-1.7 1028 hPa-
06/03/2021 02:14-0.6 °C84 %-2.8 °C3 km/hN10 km/h-1.7 1028 hPa-
06/03/2021 01:59-0.4 °C82 %-3.3 °C2 km/hN10 km/h-1.1 1028 hPa-
06/03/2021 01:440.1 °C81 %-2.8 °C2 km/hN10 km/h-0.6 1028 hPa-
06/03/2021 01:290.7 °C79 %-2.8 °C3 km/hN10 km/h-0.6 1029 hPa-
06/03/2021 01:141.2 °C77 %-2.2 °C2 km/hN10 km/h0.6 1029 hPa-
06/03/2021 01:001.6 °C77 %-2.2 °C-N10 km/h1.7 1029 hPa-
06/03/2021 00:451.8 °C76 %-2.2 °C-N10 km/h1.7 1029 hPa-
06/03/2021 00:291.9 °C76 %-1.7 °C5 km/hN10 km/h1.1 1029 hPa-
06/03/2021 00:132.3 °C74 %-1.7 °C3 km/hN8 km/h1.1 1029 hPa-


Minima :

Température : -1.2 °C
Humidité : 60 %
Point de rosée : -3.3 °C
Vent moyen : 2 km/h
Windchill : -3.3
Pression atm. : 1028 hPa
Maxima :

Température : 9.0 °C
Humidité : 86 %
Point de rosée : 1.7 °C
Vent moyen : 14 km/h
Windchill : 7.8
Pression atm. : 1029 hPa
Rafales max : 23 km/h
Cumul de pluie sur 24H : 0 mm

Salbris est une commune du département Loir-et-Cher (41).
La station météorologique du réseau de l'association la plus proche de Salbris est celle de Orçay



Icône Facebook Association Météo Centre Icône Twitter Association Météo Centre Icône Chaîne Youtube Association Météo Centre Icône contact Association Météo Centre Icône Insta Association Météo Centre